< < Back
Terminal Aerodrome Forecast


Current Version              Previous Versions:   1  2  3  4  5  6  7  8  9  

Terminal Aerodrome Forecast

332
FTUS42 KILM 222300
TAFILM
TAF
KILM 222320Z 2300/2324 18003KT P6SM VCSH SCT020 BKN150
     FM230600 24003KT P6SM SCT020 SCT040 OVC150
     FM230900 00000KT 5SM BR SCT010
     FM231200 22006KT P6SM VCSH BKN016 OVC120
     FM231500 19007KT 4SM SHRA BKN018
      TEMPO 2317/2321 2SM +TSRA BKN024CB=



Latest METAR

555
SAUS70 KWBC 230400
MTRILM
METAR KILM 230353Z AUTO 00000KT 10SM FEW020 24/23 A3010 RMK AO2 SLP194
T02440228


USA.gov is the U.S. government's official web portal to all federal, state and local government web resources and services.